sensor_id;sensor_type;location;lat;lon;timestamp;temperature;humidity
23520;DHT22;11936;50.820;4.336;2023-02-07T00:02:21;7.20;99.90
23520;DHT22;11936;50.820;4.336;2023-02-07T00:04:46;7.20;99.90
23520;DHT22;11936;50.820;4.336;2023-02-07T00:07:12;7.10;99.90
23520;DHT22;11936;50.820;4.336;2023-02-07T00:09:37;7.20;99.90
23520;DHT22;11936;50.820;4.336;2023-02-07T00:12:03;7.20;99.90
23520;DHT22;11936;50.820;4.336;2023-02-07T00:14:29;7.20;99.90
23520;DHT22;11936;50.820;4.336;2023-02-07T00:16:55;7.20;99.90
23520;DHT22;11936;50.820;4.336;2023-02-07T00:19:20;7.10;99.90
23520;DHT22;11936;50.820;4.336;2023-02-07T00:21:46;7.20;99.90
23520;DHT22;11936;50.820;4.336;2023-02-07T00:24:11;7.20;99.90
23520;DHT22;11936;50.820;4.336;2023-02-07T00:26:38;7.10;99.90
23520;DHT22;11936;50.820;4.336;2023-02-07T00:29:04;7.10;99.90
23520;DHT22;11936;50.820;4.336;2023-02-07T00:31:31;7.10;99.90
23520;DHT22;11936;50.820;4.336;2023-02-07T00:34:02;7.10;99.90
23520;DHT22;11936;50.820;4.336;2023-02-07T00:36:30;7.10;99.90
23520;DHT22;11936;50.820;4.336;2023-02-07T00:38:57;7.10;99.90
23520;DHT22;11936;50.820;4.336;2023-02-07T00:41:24;7.00;99.90
23520;DHT22;11936;50.820;4.336;2023-02-07T00:43:50;7.00;99.90
23520;DHT22;11936;50.820;4.336;2023-02-07T00:46:16;7.00;99.90
23520;DHT22;11936;50.820;4.336;2023-02-07T00:48:41;7.00;99.90
23520;DHT22;11936;50.820;4.336;2023-02-07T00:51:08;6.90;99.90
23520;DHT22;11936;50.820;4.336;2023-02-07T00:53:34;6.90;99.90
23520;DHT22;11936;50.820;4.336;2023-02-07T00:56:00;7.00;99.90
23520;DHT22;11936;50.820;4.336;2023-02-07T00:58:25;6.90;99.90
23520;DHT22;11936;50.820;4.336;2023-02-07T01:00:51;6.90;99.90
23520;DHT22;11936;50.820;4.336;2023-02-07T01:03:17;6.70;99.90
23520;DHT22;11936;50.820;4.336;2023-02-07T01:05:43;6.70;99.90
23520;DHT22;11936;50.820;4.336;2023-02-07T01:08:08;6.60;99.90
23520;DHT22;11936;50.820;4.336;2023-02-07T01:10:35;6.60;99.90
23520;DHT22;11936;50.820;4.336;2023-02-07T01:13:03;6.50;99.90
23520;DHT22;11936;50.820;4.336;2023-02-07T01:15:28;6.70;99.90
23520;DHT22;11936;50.820;4.336;2023-02-07T01:17:54;6.80;99.90
23520;DHT22;11936;50.820;4.336;2023-02-07T01:20:20;6.70;99.90
23520;DHT22;11936;50.820;4.336;2023-02-07T01:22:45;6.70;99.90
23520;DHT22;11936;50.820;4.336;2023-02-07T01:25:11;6.70;99.90
23520;DHT22;11936;50.820;4.336;2023-02-07T01:27:36;6.70;99.90
23520;DHT22;11936;50.820;4.336;2023-02-07T01:30:03;6.70;99.90
23520;DHT22;11936;50.820;4.336;2023-02-07T01:32:31;6.70;99.90
23520;DHT22;11936;50.820;4.336;2023-02-07T01:34:57;6.70;99.90
23520;DHT22;11936;50.820;4.336;2023-02-07T01:37:22;6.70;99.90
23520;DHT22;11936;50.820;4.336;2023-02-07T01:39:48;6.60;99.90
23520;DHT22;11936;50.820;4.336;2023-02-07T01:42:14;6.60;99.90
23520;DHT22;11936;50.820;4.336;2023-02-07T01:47:11;6.50;99.90
23520;DHT22;11936;50.820;4.336;2023-02-07T01:49:38;6.50;99.90
23520;DHT22;11936;50.820;4.336;2023-02-07T01:52:13;6.50;99.90
23520;DHT22;11936;50.820;4.336;2023-02-07T01:54:42;6.50;99.90
23520;DHT22;11936;50.820;4.336;2023-02-07T01:57:12;6.50;99.90
23520;DHT22;11936;50.820;4.336;2023-02-07T01:59:39;6.40;99.90
23520;DHT22;11936;50.820;4.336;2023-02-07T02:02:10;6.40;99.90
23520;DHT22;11936;50.820;4.336;2023-02-07T02:04:37;6.40;99.90
23520;DHT22;11936;50.820;4.336;2023-02-07T02:07:04;6.40;99.90
23520;DHT22;11936;50.820;4.336;2023-02-07T02:09:30;6.40;99.90
23520;DHT22;11936;50.820;4.336;2023-02-07T02:14:56;6.50;99.90
23520;DHT22;11936;50.820;4.336;2023-02-07T02:17:59;6.40;99.90
23520;DHT22;11936;50.820;4.336;2023-02-07T02:21:07;6.30;99.90
23520;DHT22;11936;50.820;4.336;2023-02-07T02:37:24;6.20;99.90
23520;DHT22;11936;50.820;4.336;2023-02-07T02:46:00;6.30;99.90
23520;DHT22;11936;50.820;4.336;2023-02-07T02:48:28;6.10;99.90
23520;DHT22;11936;50.820;4.336;2023-02-07T02:50:55;6.20;99.90
23520;DHT22;11936;50.820;4.336;2023-02-07T02:53:22;6.10;99.90
23520;DHT22;11936;50.820;4.336;2023-02-07T03:05:17;6.10;99.90
23520;DHT22;11936;50.820;4.336;2023-02-07T03:10:18;6.10;99.90
23520;DHT22;11936;50.820;4.336;2023-02-07T03:13:02;6.10;99.90
23520;DHT22;11936;50.820;4.336;2023-02-07T03:18:59;6.00;99.90
23520;DHT22;11936;50.820;4.336;2023-02-07T03:21:30;6.00;99.90
23520;DHT22;11936;50.820;4.336;2023-02-07T03:24:00;6.00;99.90
23520;DHT22;11936;50.820;4.336;2023-02-07T03:26:28;5.90;99.90
23520;DHT22;11936;50.820;4.336;2023-02-07T03:28:55;5.90;99.90
23520;DHT22;11936;50.820;4.336;2023-02-07T03:31:23;6.00;99.90
23520;DHT22;11936;50.820;4.336;2023-02-07T03:33:54;5.80;99.90
23520;DHT22;11936;50.820;4.336;2023-02-07T03:36:30;5.80;99.90
23520;DHT22;11936;50.820;4.336;2023-02-07T03:38:58;5.70;99.90
23520;DHT22;11936;50.820;4.336;2023-02-07T03:42:03;5.70;99.90
23520;DHT22;11936;50.820;4.336;2023-02-07T03:44:32;5.60;99.90
23520;DHT22;11936;50.820;4.336;2023-02-07T03:46:59;5.70;99.90
23520;DHT22;11936;50.820;4.336;2023-02-07T03:49:24;5.70;99.90
23520;DHT22;11936;50.820;4.336;2023-02-07T03:51:50;5.50;99.90
23520;DHT22;11936;50.820;4.336;2023-02-07T03:54:16;5.60;99.90
23520;DHT22;11936;50.820;4.336;2023-02-07T03:56:42;5.70;99.90
23520;DHT22;11936;50.820;4.336;2023-02-07T03:59:08;5.60;99.90
23520;DHT22;11936;50.820;4.336;2023-02-07T04:01:34;5.60;99.90
23520;DHT22;11936;50.820;4.336;2023-02-07T04:04:05;5.70;99.90
23520;DHT22;11936;50.820;4.336;2023-02-07T04:06:31;5.80;99.90
23520;DHT22;11936;50.820;4.336;2023-02-07T04:08:57;5.70;99.90
23520;DHT22;11936;50.820;4.336;2023-02-07T04:11:22;5.70;99.90
23520;DHT22;11936;50.820;4.336;2023-02-07T04:13:48;5.70;99.90
23520;DHT22;11936;50.820;4.336;2023-02-07T04:16:14;5.70;99.90
23520;DHT22;11936;50.820;4.336;2023-02-07T04:18:39;5.60;99.90
23520;DHT22;11936;50.820;4.336;2023-02-07T04:21:07;5.60;99.90
23520;DHT22;11936;50.820;4.336;2023-02-07T04:23:34;5.40;99.90
23520;DHT22;11936;50.820;4.336;2023-02-07T04:26:00;5.50;99.90
23520;DHT22;11936;50.820;4.336;2023-02-07T04:28:25;5.40;99.90
23520;DHT22;11936;50.820;4.336;2023-02-07T04:30:51;5.40;99.90
23520;DHT22;11936;50.820;4.336;2023-02-07T04:33:17;5.40;99.90
23520;DHT22;11936;50.820;4.336;2023-02-07T04:35:43;5.50;99.90
23520;DHT22;11936;50.820;4.336;2023-02-07T04:38:09;5.40;99.90
23520;DHT22;11936;50.820;4.336;2023-02-07T04:40:34;5.40;99.90
23520;DHT22;11936;50.820;4.336;2023-02-07T04:43:02;5.30;99.90
23520;DHT22;11936;50.820;4.336;2023-02-07T04:45:28;5.30;99.90
23520;DHT22;11936;50.820;4.336;2023-02-07T04:47:53;5.30;99.90
23520;DHT22;11936;50.820;4.336;2023-02-07T04:50:19;5.30;99.90
23520;DHT22;11936;50.820;4.336;2023-02-07T04:52:45;5.30;99.90
23520;DHT22;11936;50.820;4.336;2023-02-07T04:55:10;5.30;99.90
23520;DHT22;11936;50.820;4.336;2023-02-07T04:57:36;5.30;99.90
23520;DHT22;11936;50.820;4.336;2023-02-07T05:00:02;5.30;99.90
23520;DHT22;11936;50.820;4.336;2023-02-07T05:02:28;5.40;99.90
23520;DHT22;11936;50.820;4.336;2023-02-07T05:04:54;5.40;99.90
23520;DHT22;11936;50.820;4.336;2023-02-07T05:07:19;5.20;99.90
23520;DHT22;11936;50.820;4.336;2023-02-07T05:09:45;5.20;99.90
23520;DHT22;11936;50.820;4.336;2023-02-07T05:12:10;5.20;99.90
23520;DHT22;11936;50.820;4.336;2023-02-07T05:14:37;5.10;99.90
23520;DHT22;11936;50.820;4.336;2023-02-07T05:17:02;5.20;99.90
23520;DHT22;11936;50.820;4.336;2023-02-07T05:19:28;5.20;99.90
23520;DHT22;11936;50.820;4.336;2023-02-07T05:21:54;5.20;99.90
23520;DHT22;11936;50.820;4.336;2023-02-07T05:24:20;5.20;99.90
23520;DHT22;11936;50.820;4.336;2023-02-07T05:26:45;5.20;99.90
23520;DHT22;11936;50.820;4.336;2023-02-07T05:29:11;5.20;99.90
23520;DHT22;11936;50.820;4.336;2023-02-07T05:31:36;5.20;99.90
23520;DHT22;11936;50.820;4.336;2023-02-07T05:34:22;5.10;99.90
23520;DHT22;11936;50.820;4.336;2023-02-07T05:36:47;5.10;99.90
23520;DHT22;11936;50.820;4.336;2023-02-07T05:39:13;5.20;99.90
23520;DHT22;11936;50.820;4.336;2023-02-07T05:41:39;5.10;99.90
23520;DHT22;11936;50.820;4.336;2023-02-07T05:44:04;5.20;99.90
23520;DHT22;11936;50.820;4.336;2023-02-07T05:46:31;5.10;99.90
23520;DHT22;11936;50.820;4.336;2023-02-07T05:48:56;5.00;99.90
23520;DHT22;11936;50.820;4.336;2023-02-07T05:51:22;5.00;99.90
23520;DHT22;11936;50.820;4.336;2023-02-07T05:53:48;4.90;99.90
23520;DHT22;11936;50.820;4.336;2023-02-07T05:56:13;5.00;99.90
23520;DHT22;11936;50.820;4.336;2023-02-07T05:58:39;5.00;99.90
23520;DHT22;11936;50.820;4.336;2023-02-07T06:01:04;4.90;99.90
23520;DHT22;11936;50.820;4.336;2023-02-07T06:03:30;5.00;99.90
23520;DHT22;11936;50.820;4.336;2023-02-07T06:05:55;4.90;99.90
23520;DHT22;11936;50.820;4.336;2023-02-07T06:08:21;4.90;99.90
23520;DHT22;11936;50.820;4.336;2023-02-07T06:10:47;5.00;99.90
23520;DHT22;11936;50.820;4.336;2023-02-07T06:13:13;5.00;99.90
23520;DHT22;11936;50.820;4.336;2023-02-07T06:15:39;5.00;99.90
23520;DHT22;11936;50.820;4.336;2023-02-07T06:18:05;5.00;99.90
23520;DHT22;11936;50.820;4.336;2023-02-07T06:20:31;5.00;99.90
23520;DHT22;11936;50.820;4.336;2023-02-07T06:22:56;4.90;99.90
23520;DHT22;11936;50.820;4.336;2023-02-07T06:25:22;5.00;99.90
23520;DHT22;11936;50.820;4.336;2023-02-07T06:27:47;5.00;99.90
23520;DHT22;11936;50.820;4.336;2023-02-07T06:30:13;5.00;99.90
23520;DHT22;11936;50.820;4.336;2023-02-07T06:32:39;4.90;99.90
23520;DHT22;11936;50.820;4.336;2023-02-07T06:35:05;5.00;99.90
23520;DHT22;11936;50.820;4.336;2023-02-07T06:37:31;4.90;99.90
23520;DHT22;11936;50.820;4.336;2023-02-07T06:39:56;4.80;99.90
23520;DHT22;11936;50.820;4.336;2023-02-07T06:42:22;4.90;99.90
23520;DHT22;11936;50.820;4.336;2023-02-07T06:44:48;4.90;99.90
23520;DHT22;11936;50.820;4.336;2023-02-07T06:47:13;4.80;99.90
23520;DHT22;11936;50.820;4.336;2023-02-07T06:49:40;4.90;99.90
23520;DHT22;11936;50.820;4.336;2023-02-07T06:52:06;4.80;99.90
23520;DHT22;11936;50.820;4.336;2023-02-07T06:54:32;4.90;99.90
23520;DHT22;11936;50.820;4.336;2023-02-07T06:56:58;4.90;99.90
23520;DHT22;11936;50.820;4.336;2023-02-07T06:59:23;4.90;99.90
23520;DHT22;11936;50.820;4.336;2023-02-07T07:01:49;5.00;99.90
23520;DHT22;11936;50.820;4.336;2023-02-07T07:04:15;4.90;99.90
23520;DHT22;11936;50.820;4.336;2023-02-07T07:06:40;4.90;99.90
23520;DHT22;11936;50.820;4.336;2023-02-07T07:09:06;4.70;99.90
23520;DHT22;11936;50.820;4.336;2023-02-07T07:11:31;4.80;99.90
23520;DHT22;11936;50.820;4.336;2023-02-07T07:13:57;4.80;99.90
23520;DHT22;11936;50.820;4.336;2023-02-07T07:16:24;4.90;99.90
23520;DHT22;11936;50.820;4.336;2023-02-07T07:18:50;4.90;99.90
23520;DHT22;11936;50.820;4.336;2023-02-07T07:21:15;4.90;99.90
23520;DHT22;11936;50.820;4.336;2023-02-07T07:23:41;4.80;99.90
23520;DHT22;11936;50.820;4.336;2023-02-07T07:26:07;4.80;99.90
23520;DHT22;11936;50.820;4.336;2023-02-07T07:28:33;4.80;99.90
23520;DHT22;11936;50.820;4.336;2023-02-07T07:31:06;4.70;99.90
23520;DHT22;11936;50.820;4.336;2023-02-07T07:33:32;4.80;99.90
23520;DHT22;11936;50.820;4.336;2023-02-07T07:35:59;4.70;99.90
23520;DHT22;11936;50.820;4.336;2023-02-07T07:38:25;4.80;99.90
23520;DHT22;11936;50.820;4.336;2023-02-07T07:40:51;4.80;99.90
23520;DHT22;11936;50.820;4.336;2023-02-07T07:43:17;4.90;99.90
23520;DHT22;11936;50.820;4.336;2023-02-07T07:45:43;4.90;99.90
23520;DHT22;11936;50.820;4.336;2023-02-07T07:48:08;4.90;99.90
23520;DHT22;11936;50.820;4.336;2023-02-07T07:50:34;4.90;99.90
23520;DHT22;11936;50.820;4.336;2023-02-07T07:52:59;4.90;99.90
23520;DHT22;11936;50.820;4.336;2023-02-07T07:55:25;5.00;99.90
23520;DHT22;11936;50.820;4.336;2023-02-07T07:57:52;4.90;99.90
23520;DHT22;11936;50.820;4.336;2023-02-07T08:00:17;4.90;99.90
23520;DHT22;11936;50.820;4.336;2023-02-07T08:02:43;5.00;99.90
23520;DHT22;11936;50.820;4.336;2023-02-07T08:05:09;4.90;99.90
23520;DHT22;11936;50.820;4.336;2023-02-07T08:07:36;5.00;99.90
23520;DHT22;11936;50.820;4.336;2023-02-07T08:10:01;5.00;99.90
23520;DHT22;11936;50.820;4.336;2023-02-07T08:12:27;5.00;99.90
23520;DHT22;11936;50.820;4.336;2023-02-07T08:14:53;5.00;99.90
23520;DHT22;11936;50.820;4.336;2023-02-07T08:17:18;5.00;99.90
23520;DHT22;11936;50.820;4.336;2023-02-07T08:19:44;5.00;99.90
23520;DHT22;11936;50.820;4.336;2023-02-07T08:22:09;4.90;99.90
23520;DHT22;11936;50.820;4.336;2023-02-07T08:24:35;4.90;99.90
23520;DHT22;11936;50.820;4.336;2023-02-07T08:27:01;5.10;99.90
23520;DHT22;11936;50.820;4.336;2023-02-07T08:29:27;5.10;99.90
23520;DHT22;11936;50.820;4.336;2023-02-07T08:31:52;5.00;99.90
23520;DHT22;11936;50.820;4.336;2023-02-07T08:34:18;5.10;99.90
23520;DHT22;11936;50.820;4.336;2023-02-07T08:36:48;5.10;99.90
23520;DHT22;11936;50.820;4.336;2023-02-07T08:39:14;5.00;99.90
23520;DHT22;11936;50.820;4.336;2023-02-07T08:41:40;5.20;99.90
23520;DHT22;11936;50.820;4.336;2023-02-07T08:44:05;5.20;99.90
23520;DHT22;11936;50.820;4.336;2023-02-07T08:46:31;5.10;99.90
23520;DHT22;11936;50.820;4.336;2023-02-07T08:48:57;5.20;99.90
23520;DHT22;11936;50.820;4.336;2023-02-07T08:51:22;5.20;99.90
23520;DHT22;11936;50.820;4.336;2023-02-07T08:53:48;5.10;99.90
23520;DHT22;11936;50.820;4.336;2023-02-07T08:56:13;5.10;99.90
23520;DHT22;11936;50.820;4.336;2023-02-07T08:58:39;5.10;99.90
23520;DHT22;11936;50.820;4.336;2023-02-07T09:01:05;5.10;99.90
23520;DHT22;11936;50.820;4.336;2023-02-07T09:03:36;5.20;99.90
23520;DHT22;11936;50.820;4.336;2023-02-07T09:06:01;5.20;99.90
23520;DHT22;11936;50.820;4.336;2023-02-07T09:08:27;5.20;99.90
23520;DHT22;11936;50.820;4.336;2023-02-07T09:10:53;5.20;99.90
23520;DHT22;11936;50.820;4.336;2023-02-07T09:13:18;5.30;99.90
23520;DHT22;11936;50.820;4.336;2023-02-07T09:15:44;5.40;99.90
23520;DHT22;11936;50.820;4.336;2023-02-07T09:18:09;5.40;99.90
23520;DHT22;11936;50.820;4.336;2023-02-07T09:20:35;5.30;99.90
23520;DHT22;11936;50.820;4.336;2023-02-07T09:23:01;5.30;99.90
23520;DHT22;11936;50.820;4.336;2023-02-07T09:25:42;5.40;99.90
23520;DHT22;11936;50.820;4.336;2023-02-07T09:28:07;5.50;99.90
23520;DHT22;11936;50.820;4.336;2023-02-07T09:30:33;5.50;99.90
23520;DHT22;11936;50.820;4.336;2023-02-07T09:32:59;5.60;99.90
23520;DHT22;11936;50.820;4.336;2023-02-07T09:35:24;5.60;99.90
23520;DHT22;11936;50.820;4.336;2023-02-07T09:37:54;5.70;99.90
23520;DHT22;11936;50.820;4.336;2023-02-07T09:40:20;5.70;99.90
23520;DHT22;11936;50.820;4.336;2023-02-07T09:42:52;5.80;99.90
23520;DHT22;11936;50.820;4.336;2023-02-07T09:45:22;5.70;99.90
23520;DHT22;11936;50.820;4.336;2023-02-07T09:47:52;5.70;99.90
23520;DHT22;11936;50.820;4.336;2023-02-07T09:50:29;5.70;99.90
23520;DHT22;11936;50.820;4.336;2023-02-07T09:52:59;5.70;99.90
23520;DHT22;11936;50.820;4.336;2023-02-07T09:55:52;5.60;99.90
23520;DHT22;11936;50.820;4.336;2023-02-07T10:01:02;5.60;99.90
23520;DHT22;11936;50.820;4.336;2023-02-07T10:03:30;5.50;99.90
23520;DHT22;11936;50.820;4.336;2023-02-07T10:08:24;5.60;99.90
23520;DHT22;11936;50.820;4.336;2023-02-07T10:11:19;5.60;99.90
23520;DHT22;11936;50.820;4.336;2023-02-07T10:13:58;5.70;99.90
23520;DHT22;11936;50.820;4.336;2023-02-07T10:22:39;5.80;99.90
23520;DHT22;11936;50.820;4.336;2023-02-07T10:25:29;5.90;99.90
23520;DHT22;11936;50.820;4.336;2023-02-07T10:30:53;6.00;99.90
23520;DHT22;11936;50.820;4.336;2023-02-07T10:33:28;6.00;99.90
23520;DHT22;11936;50.820;4.336;2023-02-07T10:35:55;5.90;99.90
23520;DHT22;11936;50.820;4.336;2023-02-07T10:40:55;5.90;99.90
23520;DHT22;11936;50.820;4.336;2023-02-07T10:43:29;6.00;99.90
23520;DHT22;11936;50.820;4.336;2023-02-07T10:46:03;5.90;99.90
23520;DHT22;11936;50.820;4.336;2023-02-07T10:48:31;6.10;99.90
23520;DHT22;11936;50.820;4.336;2023-02-07T10:50:58;6.10;99.90
23520;DHT22;11936;50.820;4.336;2023-02-07T10:53:49;6.20;99.90
23520;DHT22;11936;50.820;4.336;2023-02-07T10:56:20;6.20;99.90
23520;DHT22;11936;50.820;4.336;2023-02-07T10:58:46;6.30;99.90
23520;DHT22;11936;50.820;4.336;2023-02-07T11:01:18;6.30;99.90
23520;DHT22;11936;50.820;4.336;2023-02-07T11:03:45;6.40;99.90
23520;DHT22;11936;50.820;4.336;2023-02-07T11:06:13;6.50;99.90
23520;DHT22;11936;50.820;4.336;2023-02-07T11:08:39;6.50;99.90
23520;DHT22;11936;50.820;4.336;2023-02-07T11:11:30;6.60;99.90
23520;DHT22;11936;50.820;4.336;2023-02-07T11:14:03;6.60;99.90
23520;DHT22;11936;50.820;4.336;2023-02-07T11:16:29;6.70;99.90
23520;DHT22;11936;50.820;4.336;2023-02-07T11:18:59;6.80;99.90
23520;DHT22;11936;50.820;4.336;2023-02-07T11:24:06;6.70;99.90
23520;DHT22;11936;50.820;4.336;2023-02-07T11:26:34;6.80;99.90
23520;DHT22;11936;50.820;4.336;2023-02-07T11:29:15;6.80;99.90
23520;DHT22;11936;50.820;4.336;2023-02-07T11:31:43;6.80;99.90
23520;DHT22;11936;50.820;4.336;2023-02-07T11:42:49;7.10;99.90
23520;DHT22;11936;50.820;4.336;2023-02-07T11:45:21;7.10;99.90
23520;DHT22;11936;50.820;4.336;2023-02-07T11:47:48;7.00;99.90
23520;DHT22;11936;50.820;4.336;2023-02-07T11:50:29;7.10;99.90
23520;DHT22;11936;50.820;4.336;2023-02-07T11:52:58;7.20;99.90
23520;DHT22;11936;50.820;4.336;2023-02-07T11:55:44;7.20;99.90
23520;DHT22;11936;50.820;4.336;2023-02-07T12:00:56;7.10;99.90
23520;DHT22;11936;50.820;4.336;2023-02-07T12:03:28;7.10;99.90
23520;DHT22;11936;50.820;4.336;2023-02-07T12:06:00;7.20;99.90
23520;DHT22;11936;50.820;4.336;2023-02-07T12:08:30;7.20;99.90
23520;DHT22;11936;50.820;4.336;2023-02-07T12:11:03;7.30;99.90
23520;DHT22;11936;50.820;4.336;2023-02-07T12:13:35;7.30;99.80
23520;DHT22;11936;50.820;4.336;2023-02-07T12:18:47;7.40;99.90
23520;DHT22;11936;50.820;4.336;2023-02-07T12:22:30;7.40;99.60
23520;DHT22;11936;50.820;4.336;2023-02-07T12:24:33;7.50;99.50
23520;DHT22;11936;50.820;4.336;2023-02-07T12:27:13;7.60;99.10
23520;DHT22;11936;50.820;4.336;2023-02-07T12:33:09;7.60;98.70
23520;DHT22;11936;50.820;4.336;2023-02-07T12:38:37;7.60;98.40
23520;DHT22;11936;50.820;4.336;2023-02-07T12:41:20;7.60;96.50
23520;DHT22;11936;50.820;4.336;2023-02-07T12:50:30;7.80;96.20
23520;DHT22;11936;50.820;4.336;2023-02-07T13:01:35;7.90;97.20
23520;DHT22;11936;50.820;4.336;2023-02-07T13:10:10;8.00;97.60
23520;DHT22;11936;50.820;4.336;2023-02-07T13:13:24;8.00;96.50
23520;DHT22;11936;50.820;4.336;2023-02-07T13:15:40;8.00;97.10
23520;DHT22;11936;50.820;4.336;2023-02-07T13:18:12;8.00;97.30
23520;DHT22;11936;50.820;4.336;2023-02-07T13:23:44;8.10;95.30
23520;DHT22;11936;50.820;4.336;2023-02-07T13:26:15;8.10;95.70
23520;DHT22;11936;50.820;4.336;2023-02-07T13:28:52;8.10;95.80
23520;DHT22;11936;50.820;4.336;2023-02-07T13:33:59;8.30;96.30
23520;DHT22;11936;50.820;4.336;2023-02-07T13:36:41;8.30;97.20
23520;DHT22;11936;50.820;4.336;2023-02-07T13:47:30;8.20;98.70
23520;DHT22;11936;50.820;4.336;2023-02-07T13:55:47;8.20;98.70
23520;DHT22;11936;50.820;4.336;2023-02-07T14:01:19;8.30;98.40
23520;DHT22;11936;50.820;4.336;2023-02-07T14:04:04;8.20;98.90
23520;DHT22;11936;50.820;4.336;2023-02-07T14:06:55;8.20;98.50
23520;DHT22;11936;50.820;4.336;2023-02-07T14:09:38;8.20;98.40
23520;DHT22;11936;50.820;4.336;2023-02-07T14:12:06;8.10;98.90
23520;DHT22;11936;50.820;4.336;2023-02-07T14:14:38;8.10;99.10
23520;DHT22;11936;50.820;4.336;2023-02-07T14:17:05;8.20;99.00
23520;DHT22;11936;50.820;4.336;2023-02-07T14:27:31;8.30;98.80
23520;DHT22;11936;50.820;4.336;2023-02-07T14:35:37;8.20;98.80
23520;DHT22;11936;50.820;4.336;2023-02-07T14:43:17;8.30;99.00
23520;DHT22;11936;50.820;4.336;2023-02-07T14:48:45;8.50;99.10
23520;DHT22;11936;50.820;4.336;2023-02-07T14:51:38;8.40;99.20
23520;DHT22;11936;50.820;4.336;2023-02-07T14:54:21;8.40;99.10
23520;DHT22;11936;50.820;4.336;2023-02-07T14:59:27;8.50;98.10
23520;DHT22;11936;50.820;4.336;2023-02-07T15:01:54;8.50;98.60
23520;DHT22;11936;50.820;4.336;2023-02-07T15:04:20;8.50;98.60
23520;DHT22;11936;50.820;4.336;2023-02-07T15:06:46;8.50;98.40
23520;DHT22;11936;50.820;4.336;2023-02-07T15:09:25;8.50;98.70
23520;DHT22;11936;50.820;4.336;2023-02-07T15:11:53;8.60;98.60
23520;DHT22;11936;50.820;4.336;2023-02-07T15:14:32;8.70;99.70
23520;DHT22;11936;50.820;4.336;2023-02-07T15:17:00;8.70;98.40
23520;DHT22;11936;50.820;4.336;2023-02-07T15:21:58;8.60;98.60
23520;DHT22;11936;50.820;4.336;2023-02-07T15:24:28;8.60;98.60
23520;DHT22;11936;50.820;4.336;2023-02-07T15:27:00;8.60;98.60
23520;DHT22;11936;50.820;4.336;2023-02-07T15:29:36;8.50;98.40
23520;DHT22;11936;50.820;4.336;2023-02-07T15:32:23;8.60;98.70
23520;DHT22;11936;50.820;4.336;2023-02-07T15:34:49;8.60;99.00
23520;DHT22;11936;50.820;4.336;2023-02-07T15:37:18;8.60;98.10
23520;DHT22;11936;50.820;4.336;2023-02-07T15:39:45;8.60;98.20
23520;DHT22;11936;50.820;4.336;2023-02-07T15:42:15;8.60;99.30
23520;DHT22;11936;50.820;4.336;2023-02-07T15:44:48;8.40;99.00
23520;DHT22;11936;50.820;4.336;2023-02-07T15:47:35;8.30;99.00
23520;DHT22;11936;50.820;4.336;2023-02-07T15:50:03;8.40;98.80
23520;DHT22;11936;50.820;4.336;2023-02-07T15:52:39;8.40;98.50
23520;DHT22;11936;50.820;4.336;2023-02-07T15:55:16;8.40;97.90
23520;DHT22;11936;50.820;4.336;2023-02-07T15:57:46;8.30;98.40
23520;DHT22;11936;50.820;4.336;2023-02-07T16:00:22;8.20;98.80
23520;DHT22;11936;50.820;4.336;2023-02-07T16:03:12;8.20;98.50
23520;DHT22;11936;50.820;4.336;2023-02-07T16:05:39;8.20;98.90
23520;DHT22;11936;50.820;4.336;2023-02-07T16:10:51;8.20;98.60
23520;DHT22;11936;50.820;4.336;2023-02-07T16:13:20;8.00;98.10
23520;DHT22;11936;50.820;4.336;2023-02-07T16:15:53;8.10;97.80
23520;DHT22;11936;50.820;4.336;2023-02-07T16:18:37;8.00;98.20
23520;DHT22;11936;50.820;4.336;2023-02-07T16:21:11;7.90;98.90
23520;DHT22;11936;50.820;4.336;2023-02-07T16:23:37;7.90;97.70
23520;DHT22;11936;50.820;4.336;2023-02-07T16:26:03;7.90;98.00
23520;DHT22;11936;50.820;4.336;2023-02-07T16:28:30;7.90;98.10
23520;DHT22;11936;50.820;4.336;2023-02-07T16:30:55;7.90;98.10
23520;DHT22;11936;50.820;4.336;2023-02-07T16:33:24;7.80;99.00
23520;DHT22;11936;50.820;4.336;2023-02-07T16:35:50;7.80;99.20
23520;DHT22;11936;50.820;4.336;2023-02-07T16:38:15;7.80;99.00
23520;DHT22;11936;50.820;4.336;2023-02-07T16:40:41;7.70;99.70
23520;DHT22;11936;50.820;4.336;2023-02-07T16:43:07;7.60;98.90
23520;DHT22;11936;50.820;4.336;2023-02-07T16:45:33;7.60;99.90
23520;DHT22;11936;50.820;4.336;2023-02-07T16:48:01;7.50;98.60
23520;DHT22;11936;50.820;4.336;2023-02-07T16:50:29;7.50;99.50
23520;DHT22;11936;50.820;4.336;2023-02-07T16:52:55;7.50;99.90
23520;DHT22;11936;50.820;4.336;2023-02-07T16:55:23;7.60;99.90
23520;DHT22;11936;50.820;4.336;2023-02-07T16:57:50;7.50;99.80
23520;DHT22;11936;50.820;4.336;2023-02-07T17:00:22;7.60;99.90
23520;DHT22;11936;50.820;4.336;2023-02-07T17:02:49;7.50;99.90
23520;DHT22;11936;50.820;4.336;2023-02-07T17:05:16;7.50;99.90
23520;DHT22;11936;50.820;4.336;2023-02-07T17:07:43;7.30;99.90
23520;DHT22;11936;50.820;4.336;2023-02-07T17:12:44;7.40;99.90
23520;DHT22;11936;50.820;4.336;2023-02-07T17:15:10;7.50;99.90
23520;DHT22;11936;50.820;4.336;2023-02-07T17:17:36;7.40;99.90
23520;DHT22;11936;50.820;4.336;2023-02-07T17:20:19;7.50;99.90
23520;DHT22;11936;50.820;4.336;2023-02-07T17:22:45;7.40;99.90
23520;DHT22;11936;50.820;4.336;2023-02-07T17:25:12;7.40;99.90
23520;DHT22;11936;50.820;4.336;2023-02-07T17:27:38;7.40;99.90
23520;DHT22;11936;50.820;4.336;2023-02-07T17:30:17;7.40;99.90
23520;DHT22;11936;50.820;4.336;2023-02-07T17:32:44;7.30;99.90
23520;DHT22;11936;50.820;4.336;2023-02-07T17:35:09;7.20;99.60
23520;DHT22;11936;50.820;4.336;2023-02-07T17:37:35;7.30;99.90
23520;DHT22;11936;50.820;4.336;2023-02-07T17:40:01;7.40;99.90
23520;DHT22;11936;50.820;4.336;2023-02-07T17:42:26;7.20;99.90
23520;DHT22;11936;50.820;4.336;2023-02-07T17:44:52;7.30;99.90
23520;DHT22;11936;50.820;4.336;2023-02-07T17:47:17;7.40;99.90
23520;DHT22;11936;50.820;4.336;2023-02-07T17:49:43;7.40;99.90
23520;DHT22;11936;50.820;4.336;2023-02-07T17:52:08;7.40;99.90
23520;DHT22;11936;50.820;4.336;2023-02-07T17:54:38;7.40;99.90
23520;DHT22;11936;50.820;4.336;2023-02-07T17:57:09;7.30;99.90
23520;DHT22;11936;50.820;4.336;2023-02-07T17:59:36;7.30;99.90
23520;DHT22;11936;50.820;4.336;2023-02-07T18:02:01;7.20;99.90
23520;DHT22;11936;50.820;4.336;2023-02-07T18:04:28;7.20;99.90
23520;DHT22;11936;50.820;4.336;2023-02-07T18:06:54;7.20;99.90
23520;DHT22;11936;50.820;4.336;2023-02-07T18:09:20;7.20;99.90
23520;DHT22;11936;50.820;4.336;2023-02-07T18:11:46;7.20;99.90
23520;DHT22;11936;50.820;4.336;2023-02-07T18:14:12;7.20;99.90
23520;DHT22;11936;50.820;4.336;2023-02-07T18:16:38;7.20;99.90
23520;DHT22;11936;50.820;4.336;2023-02-07T18:19:04;7.10;99.90
23520;DHT22;11936;50.820;4.336;2023-02-07T18:21:30;7.10;99.90
23520;DHT22;11936;50.820;4.336;2023-02-07T18:23:55;7.20;99.90
23520;DHT22;11936;50.820;4.336;2023-02-07T18:26:22;7.10;99.90
23520;DHT22;11936;50.820;4.336;2023-02-07T18:28:48;7.10;99.90
23520;DHT22;11936;50.820;4.336;2023-02-07T18:31:20;7.10;99.90
23520;DHT22;11936;50.820;4.336;2023-02-07T18:33:46;7.10;99.90